Time;durP1;ratioP1;P1;durP2;ratioP2;P2;SDS_P1;SDS_P2;PMS_P1;PMS_P2;Temp;Humidity;BMP_temperature;BMP_pressure;BME280_temperature;BME280_humidity;BME280_pressure;Samples;Min_cycle;Max_cycle;Signal;HPM_P1;HPM_P2
2022/04/20 00:00:34;;;;;;;10.40;5.78;;;8.80;99.90;;;;;;5020983;28;20037;-78
2022/04/20 00:02:59;;;;;;;9.20;5.63;;;8.80;99.90;;;;;;5054575;28;20072;-80
2022/04/20 00:05:25;;;;;;;11.40;6.05;;;8.80;99.90;;;;;;5036417;28;20126;-78
2022/04/20 00:07:51;;;;;;;9.95;5.25;;;8.70;99.90;;;;;;5037097;28;20042;-78
2022/04/20 00:10:16;;;;;;;9.23;5.57;;;8.70;99.90;;;;;;5054308;28;20036;-78
2022/04/20 00:12:42;;;;;;;9.57;5.57;;;8.60;99.90;;;;;;5036745;28;20037;-78
2022/04/20 00:15:08;;;;;;;11.73;5.47;;;8.60;99.90;;;;;;5054530;28;20123;-78
2022/04/20 00:17:34;;;;;;;7.60;4.88;;;8.60;99.90;;;;;;5036854;28;20037;-80
2022/04/20 00:19:59;;;;;;;7.80;5.07;;;8.50;99.90;;;;;;5037122;28;20344;-79
2022/04/20 00:22:25;;;;;;;7.45;4.72;;;8.40;99.90;;;;;;5036731;28;20044;-78
2022/04/20 00:24:50;;;;;;;8.60;4.95;;;8.50;99.90;;;;;;5036546;28;20048;-79
2022/04/20 00:27:16;;;;;;;7.13;4.95;;;8.40;99.90;;;;;;5016845;28;20056;-78
2022/04/20 00:29:41;;;;;;;10.88;4.97;;;8.40;99.90;;;;;;5024186;28;20053;-78
2022/04/20 00:32:08;;;;;;;6.82;4.50;;;8.40;99.90;;;;;;5055229;28;20049;-79
2022/04/20 00:34:33;;;;;;;8.52;4.78;;;8.40;99.90;;;;;;5057926;28;20480;-78
2022/04/20 00:36:59;;;;;;;7.13;4.70;;;8.30;99.90;;;;;;5057271;28;20041;-80
2022/04/20 00:39:24;;;;;;;6.75;4.88;;;8.30;99.90;;;;;;5038632;28;20095;-78
2022/04/20 00:41:52;;;;;;;6.97;4.10;;;8.30;99.90;;;;;;5057350;28;20387;-78
2022/04/20 00:44:19;;;;;;;7.22;4.30;;;8.30;99.90;;;;;;5056993;28;20352;-78
2022/04/20 00:46:47;;;;;;;6.50;4.50;;;8.30;99.90;;;;;;5057738;28;20032;-79
2022/04/20 00:49:13;;;;;;;5.97;4.25;;;8.20;99.90;;;;;;5056570;28;20029;-80
2022/04/20 00:51:50;;;;;;;7.22;4.47;;;8.20;99.90;;;;;;5056853;28;20037;-79
2022/04/20 00:54:16;;;;;;;6.53;4.63;;;8.20;99.90;;;;;;5036362;28;20048;-80
2022/04/20 00:56:41;;;;;;;6.32;4.50;;;8.20;99.90;;;;;;5056764;28;20501;-80
2022/04/20 00:59:07;;;;;;;5.55;4.10;;;8.20;99.90;;;;;;5057258;28;20045;-79
2022/04/20 01:01:32;;;;;;;8.63;4.18;;;8.10;99.90;;;;;;5057332;28;20037;-80
2022/04/20 01:03:58;;;;;;;7.97;4.22;;;8.10;99.90;;;;;;5056341;28;20045;-79
2022/04/20 01:06:23;;;;;;;7.63;5.03;;;8.10;99.90;;;;;;5056244;28;20033;-79
2022/04/20 01:08:49;;;;;;;8.07;4.88;;;8.10;99.90;;;;;;5056229;28;20064;-79
2022/04/20 01:11:14;;;;;;;8.68;5.20;;;8.00;99.90;;;;;;5056128;28;20367;-79
2022/04/20 01:13:40;;;;;;;5.65;4.20;;;8.00;99.90;;;;;;5056320;28;20052;-78
2022/04/20 01:16:05;;;;;;;9.55;4.82;;;8.00;99.90;;;;;;5039388;28;20520;-78
2022/04/20 01:18:31;;;;;;;5.90;4.28;;;7.90;99.90;;;;;;5055803;28;20102;-78
2022/04/20 01:20:56;;;;;;;7.80;4.63;;;7.90;99.90;;;;;;5039992;28;20044;-80
2022/04/20 01:23:22;;;;;;;8.43;4.20;;;7.80;99.90;;;;;;5055822;28;20037;-80
2022/04/20 01:25:47;;;;;;;7.00;4.38;;;7.80;99.90;;;;;;5039877;28;20049;-79
2022/04/20 01:28:15;;;;;;;9.48;4.15;;;7.80;99.90;;;;;;5056017;28;20447;-79
2022/04/20 01:30:41;;;;;;;6.68;4.57;;;7.80;99.90;;;;;;5055877;28;20059;-79
2022/04/20 01:33:06;;;;;;;8.27;5.25;;;7.80;99.90;;;;;;5055949;28;20132;-78
2022/04/20 01:35:32;;;;;;;9.95;4.95;;;7.70;99.90;;;;;;5054866;28;20469;-78
2022/04/20 01:37:58;;;;;;;8.50;4.50;;;7.70;99.90;;;;;;5056134;28;20041;-80
2022/04/20 01:40:23;;;;;;;7.20;4.63;;;7.70;99.90;;;;;;5055298;28;20501;-79
2022/04/20 01:42:49;;;;;;;7.43;4.65;;;7.60;99.90;;;;;;5056413;28;20048;-78
2022/04/20 01:45:14;;;;;;;7.03;4.80;;;7.60;99.90;;;;;;5056048;28;20040;-80
2022/04/20 01:47:40;;;;;;;7.90;4.60;;;7.60;99.90;;;;;;5051845;28;20045;-80
2022/04/20 01:50:06;;;;;;;6.57;4.68;;;7.50;99.90;;;;;;5035756;28;20042;-79
2022/04/20 01:52:32;;;;;;;8.88;5.28;;;7.50;99.90;;;;;;5035514;28;20037;-79
2022/04/20 01:54:58;;;;;;;7.22;4.70;;;7.50;99.90;;;;;;5049361;28;20121;-78
2022/04/20 01:57:23;;;;;;;8.02;4.63;;;7.50;99.90;;;;;;5055211;28;20498;-79
2022/04/20 01:59:49;;;;;;;10.48;4.78;;;7.40;99.90;;;;;;5038888;28;20175;-78
2022/04/20 02:04:59;;;;;;;8.85;4.65;;;7.40;99.90;;;;;;5054822;28;20052;-79
2022/04/20 02:07:26;;;;;;;11.75;5.03;;;7.40;99.90;;;;;;5055616;28;20041;-80
2022/04/20 02:09:53;;;;;;;6.88;4.72;;;7.30;99.90;;;;;;5072142;28;20098;-78
2022/04/20 02:12:19;;;;;;;8.85;5.10;;;7.30;99.90;;;;;;5038574;28;20089;-80
2022/04/20 02:14:45;;;;;;;8.48;5.22;;;7.20;99.90;;;;;;5055627;28;20120;-78
2022/04/20 02:17:11;;;;;;;6.75;5.00;;;7.20;99.90;;;;;;5055260;28;20067;-78
2022/04/20 02:19:36;;;;;;;6.57;5.00;;;7.20;99.90;;;;;;5055815;28;20037;-78
2022/04/20 02:22:02;;;;;;;6.97;4.95;;;7.10;99.90;;;;;;5054893;28;20041;-80
2022/04/20 02:24:27;;;;;;;6.32;5.40;;;7.20;99.90;;;;;;5054410;28;20048;-80
2022/04/20 02:26:53;;;;;;;8.77;5.20;;;7.10;99.90;;;;;;5055338;28;20047;-80
2022/04/20 02:29:18;;;;;;;7.60;5.40;;;7.10;99.90;;;;;;5054743;28;20087;-78
2022/04/20 02:31:44;;;;;;;12.45;5.72;;;7.00;99.90;;;;;;5029083;28;20084;-78
2022/04/20 02:34:09;;;;;;;7.07;5.53;;;7.00;99.90;;;;;;5055247;28;20037;-78
2022/04/20 02:36:35;;;;;;;8.85;5.50;;;7.00;99.90;;;;;;5021500;28;20043;-78
2022/04/20 02:39:04;;;;;;;11.80;5.68;;;7.00;99.90;;;;;;5049682;28;20044;-80
2022/04/20 02:41:32;;;;;;;9.52;5.75;;;6.90;99.90;;;;;;5041218;28;20095;-79
2022/04/20 02:43:57;;;;;;;9.27;6.03;;;6.90;99.90;;;;;;5033072;28;20033;-80
2022/04/20 02:46:23;;;;;;;8.38;5.40;;;6.90;99.90;;;;;;5054385;28;20109;-78
2022/04/20 02:48:50;;;;;;;8.00;5.68;;;6.80;99.90;;;;;;5055216;28;20045;-79
2022/04/20 02:51:15;;;;;;;9.63;5.65;;;6.80;99.90;;;;;;5055180;28;20079;-79
2022/04/20 02:53:41;;;;;;;9.85;5.20;;;6.80;99.90;;;;;;5037350;28;20032;-80
2022/04/20 02:56:07;;;;;;;7.75;5.88;;;6.70;99.90;;;;;;5054767;28;20044;-80
2022/04/20 02:58:33;;;;;;;8.57;5.57;;;6.70;99.90;;;;;;5021336;28;20426;-78
2022/04/20 03:00:58;;;;;;;6.20;5.20;;;6.70;99.90;;;;;;5055186;28;20043;-79
2022/04/20 03:03:24;;;;;;;10.07;5.18;;;6.70;99.90;;;;;;5037426;28;20119;-78
2022/04/20 03:05:51;;;;;;;8.50;5.38;;;6.70;99.90;;;;;;5021172;28;20123;-78
2022/04/20 03:08:16;;;;;;;7.88;5.68;;;6.60;99.90;;;;;;5037616;28;20045;-78
2022/04/20 03:10:42;;;;;;;7.95;6.28;;;6.60;99.90;;;;;;5053863;28;20045;-78
2022/04/20 03:13:07;;;;;;;9.13;5.72;;;6.60;99.90;;;;;;5054980;28;20466;-79
2022/04/20 03:15:33;;;;;;;10.90;6.47;;;6.60;99.90;;;;;;5054948;28;20371;-77
2022/04/20 03:17:59;;;;;;;9.77;6.05;;;6.60;99.90;;;;;;5029852;28;20056;-78
2022/04/20 03:20:24;;;;;;;8.13;5.47;;;6.50;99.90;;;;;;5055036;28;20051;-79
2022/04/20 03:22:50;;;;;;;7.00;5.60;;;6.50;99.90;;;;;;5054444;28;21610;-78
2022/04/20 03:25:16;;;;;;;9.65;6.15;;;6.50;99.90;;;;;;5021441;28;20041;-78
2022/04/20 03:27:41;;;;;;;9.55;5.80;;;6.50;99.90;;;;;;5021601;28;20045;-78
2022/04/20 03:30:07;;;;;;;9.52;5.90;;;6.50;99.90;;;;;;5045752;28;20439;-77
2022/04/20 03:32:34;;;;;;;7.97;5.55;;;6.40;99.90;;;;;;5053974;28;20444;-78
2022/04/20 03:35:00;;;;;;;10.30;6.32;;;6.40;99.90;;;;;;5034634;28;20060;-78
2022/04/20 03:37:26;;;;;;;8.02;5.80;;;6.40;99.90;;;;;;5037912;28;20045;-79
2022/04/20 03:39:52;;;;;;;8.68;6.03;;;6.40;99.90;;;;;;5054849;28;20052;-77
2022/04/20 03:42:18;;;;;;;7.70;5.88;;;6.40;99.90;;;;;;5037416;28;20052;-78
2022/04/20 03:44:43;;;;;;;9.82;6.20;;;6.40;99.90;;;;;;5054636;28;20115;-78
2022/04/20 03:47:09;;;;;;;9.35;6.15;;;6.40;99.90;;;;;;5054886;28;20186;-80
2022/04/20 03:49:34;;;;;;;8.13;5.90;;;6.30;99.90;;;;;;5053702;28;20103;-78
2022/04/20 03:52:01;;;;;;;9.52;6.18;;;6.30;99.90;;;;;;5053432;28;20049;-78
2022/04/20 03:54:27;;;;;;;10.25;6.18;;;6.30;99.90;;;;;;5033480;28;20361;-78
2022/04/20 03:57:04;;;;;;;8.35;6.28;;;6.30;99.90;;;;;;5033471;28;20049;-79
2022/04/20 03:59:35;;;;;;;9.35;6.10;;;6.20;99.90;;;;;;5033810;28;20061;-78
2022/04/20 04:02:01;;;;;;;9.10;5.97;;;6.20;99.90;;;;;;5049827;28;20229;-79
2022/04/20 04:04:27;;;;;;;7.95;5.80;;;6.20;99.90;;;;;;5037796;28;20045;-78
2022/04/20 04:06:53;;;;;;;8.75;6.35;;;6.20;99.90;;;;;;5057022;28;20033;-79
2022/04/20 04:09:19;;;;;;;9.43;6.45;;;6.20;99.90;;;;;;5074200;28;20420;-78
2022/04/20 04:11:45;;;;;;;9.27;6.50;;;6.20;99.90;;;;;;5058264;28;20069;-78
2022/04/20 04:14:10;;;;;;;8.80;6.40;;;6.20;99.90;;;;;;5057273;28;20115;-78
2022/04/20 04:16:36;;;;;;;9.13;6.32;;;6.20;99.90;;;;;;5058038;28;20040;-78
2022/04/20 04:19:07;;;;;;;9.63;6.60;;;6.10;99.90;;;;;;5057316;28;20503;-78
2022/04/20 04:21:37;;;;;;;10.88;6.53;;;6.10;99.90;;;;;;5057469;28;20359;-78
2022/04/20 04:24:04;;;;;;;8.30;6.30;;;6.10;99.90;;;;;;5056869;28;20443;-80
2022/04/20 04:26:30;;;;;;;7.35;5.75;;;6.10;99.90;;;;;;5054328;28;20041;-79
2022/04/20 04:28:58;;;;;;;8.90;6.03;;;6.10;99.90;;;;;;5057209;28;20103;-80
2022/04/20 04:31:24;;;;;;;8.38;6.30;;;6.10;99.90;;;;;;5041560;28;20114;-78
2022/04/20 04:33:49;;;;;;;12.65;6.70;;;6.10;99.90;;;;;;5057645;28;20116;-80
2022/04/20 04:36:15;;;;;;;9.32;6.63;;;6.10;99.90;;;;;;5057324;28;20025;-78
2022/04/20 04:38:40;;;;;;;9.30;6.38;;;6.00;99.90;;;;;;5057993;28;20450;-78
2022/04/20 04:41:06;;;;;;;9.80;7.07;;;6.10;99.90;;;;;;5039898;28;20116;-79
2022/04/20 04:43:31;;;;;;;10.48;7.13;;;6.00;99.90;;;;;;5039778;28;20044;-79
2022/04/20 04:48:42;;;;;;;10.05;6.30;;;6.00;99.90;;;;;;5057204;28;20373;-80
2022/04/20 04:51:10;;;;;;;11.80;6.53;;;6.00;99.90;;;;;;5040272;28;20045;-78
2022/04/20 04:53:37;;;;;;;8.50;6.45;;;6.00;99.90;;;;;;5048469;28;20052;-80
2022/04/20 04:56:04;;;;;;;8.05;6.40;;;6.00;99.90;;;;;;5050840;28;20088;-78
2022/04/20 04:58:29;;;;;;;8.60;6.13;;;6.00;99.90;;;;;;5020174;28;20048;-79
2022/04/20 05:00:55;;;;;;;18.02;6.50;;;6.10;99.90;;;;;;5044144;28;20036;-78
2022/04/20 05:03:21;;;;;;;7.95;6.00;;;6.10;99.90;;;;;;5056277;28;20047;-79
2022/04/20 05:05:47;;;;;;;8.32;6.82;;;6.10;99.90;;;;;;5039422;28;20045;-79
2022/04/20 05:08:15;;;;;;;9.40;6.82;;;6.10;99.90;;;;;;5039604;28;20087;-81
2022/04/20 05:10:43;;;;;;;9.40;6.75;;;6.10;99.90;;;;;;5039785;28;20131;-77
2022/04/20 05:13:09;;;;;;;9.65;6.93;;;6.20;99.90;;;;;;5039621;28;20120;-78
2022/04/20 05:15:35;;;;;;;8.52;6.82;;;6.20;99.90;;;;;;5055807;28;20083;-78
2022/04/20 05:18:01;;;;;;;12.57;7.38;;;6.20;99.90;;;;;;5038797;28;20102;-79
2022/04/20 05:20:26;;;;;;;10.20;6.10;;;6.20;99.90;;;;;;5023113;28;20044;-73
2022/04/20 05:22:52;;;;;;;7.88;6.30;;;6.30;99.90;;;;;;5056454;28;20435;-74
2022/04/20 05:25:17;;;;;;;9.15;6.30;;;6.30;99.90;;;;;;5056513;28;20077;-71
2022/04/20 05:27:43;;;;;;;10.52;6.53;;;6.40;99.90;;;;;;5056597;28;20112;-72
2022/04/20 05:30:10;;;;;;;10.95;6.20;;;6.40;99.90;;;;;;5046354;28;20049;-76
2022/04/20 05:32:36;;;;;;;12.05;6.70;;;6.40;99.90;;;;;;5056588;28;20454;-76
2022/04/20 05:35:01;;;;;;;8.45;6.63;;;6.40;99.90;;;;;;5056395;28;20040;-75
2022/04/20 05:42:56;;;;;;;14.10;7.20;;;6.60;99.90;;;;;;5055711;28;20924;-76
2022/04/20 05:45:22;;;;;;;8.38;6.68;;;6.70;99.90;;;;;;5051399;28;20071;-76
2022/04/20 05:47:48;;;;;;;10.65;7.78;;;6.70;99.90;;;;;;5036628;28;20096;-75
2022/04/20 05:50:14;;;;;;;10.02;6.88;;;6.70;99.90;;;;;;5036998;28;20455;-75
2022/04/20 05:52:40;;;;;;;10.25;6.60;;;6.80;99.90;;;;;;5054740;28;20032;-76
2022/04/20 05:55:06;;;;;;;10.85;6.97;;;6.80;99.90;;;;;;5056217;28;20067;-75
2022/04/20 05:57:33;;;;;;;8.98;6.63;;;6.90;99.90;;;;;;5055084;28;20447;-76
2022/04/20 05:59:59;;;;;;;11.75;6.63;;;7.00;99.90;;;;;;5055712;28;20037;-75
2022/04/20 06:02:25;;;;;;;9.05;6.95;;;7.00;99.90;;;;;;5055845;28;20427;-76
2022/04/20 06:04:51;;;;;;;8.23;6.85;;;7.00;99.90;;;;;;5055858;28;20051;-76
2022/04/20 06:07:17;;;;;;;12.82;6.47;;;7.10;99.90;;;;;;5056102;28;20053;-76
2022/04/20 06:09:42;;;;;;;11.88;6.40;;;7.20;99.90;;;;;;5055672;28;20041;-76
2022/04/20 06:12:08;;;;;;;8.77;7.10;;;7.20;99.90;;;;;;5055701;28;20867;-76
2022/04/20 06:14:34;;;;;;;9.88;7.40;;;7.30;99.90;;;;;;5032517;28;20049;-77
2022/04/20 06:16:59;;;;;;;13.35;6.90;;;7.30;99.90;;;;;;5055665;28;20436;-76
2022/04/20 06:19:25;;;;;;;8.70;6.95;;;7.40;99.90;;;;;;5055619;28;20048;-76
2022/04/20 06:21:50;;;;;;;8.65;6.63;;;7.40;99.90;;;;;;5055501;28;20076;-75
2022/04/20 06:24:16;;;;;;;9.88;6.30;;;7.50;99.90;;;;;;5054304;28;20120;-77
2022/04/20 06:26:42;;;;;;;8.27;6.63;;;7.60;99.90;;;;;;5054884;28;20420;-75
2022/04/20 06:29:08;;;;;;;8.57;6.57;;;7.70;99.90;;;;;;5054813;28;20049;-77
2022/04/20 06:31:35;;;;;;;10.15;6.63;;;7.80;99.90;;;;;;5035773;28;20041;-76
2022/04/20 06:34:02;;;;;;;8.38;6.38;;;7.90;99.90;;;;;;5037551;28;20064;-78
2022/04/20 06:36:28;;;;;;;9.68;6.93;;;7.90;99.90;;;;;;5034346;28;20053;-75
2022/04/20 06:38:53;;;;;;;7.85;6.85;;;8.00;99.90;;;;;;5035574;28;20329;-77
2022/04/20 06:41:19;;;;;;;7.10;6.40;;;8.10;99.90;;;;;;5035161;28;20048;-76
2022/04/20 06:43:45;;;;;;;12.35;6.38;;;8.20;99.90;;;;;;5035546;28;20237;-76
2022/04/20 06:46:10;;;;;;;8.52;6.53;;;8.30;99.90;;;;;;5035527;28;20052;-76
2022/04/20 06:48:36;;;;;;;8.65;6.40;;;8.40;99.90;;;;;;5018419;28;20359;-75
2022/04/20 06:51:02;;;;;;;8.82;6.68;;;8.50;99.90;;;;;;5048300;28;20134;-76
2022/04/20 06:58:56;;;;;;;8.18;5.78;;;8.80;99.90;;;;;;5055010;28;20194;-75
2022/04/20 07:01:22;;;;;;;7.65;5.72;;;8.90;99.90;;;;;;5054981;28;20124;-77
2022/04/20 07:03:47;;;;;;;9.73;6.25;;;9.00;99.90;;;;;;5054745;28;20037;-76
2022/04/20 07:06:13;;;;;;;8.77;6.22;;;9.20;99.90;;;;;;5033652;28;20037;-78
2022/04/20 07:08:39;;;;;;;13.52;7.43;;;9.30;99.90;;;;;;5035225;28;20169;-77
2022/04/20 07:11:05;;;;;;;6.93;5.68;;;9.30;99.90;;;;;;5034577;28;20135;-77
2022/04/20 07:13:31;;;;;;;10.07;5.80;;;9.40;99.90;;;;;;5035171;28;20474;-78
2022/04/20 07:15:56;;;;;;;8.07;6.15;;;9.50;99.90;;;;;;5017899;28;20045;-75
2022/04/20 07:18:23;;;;;;;8.48;6.18;;;9.70;99.90;;;;;;5051165;28;20036;-75
2022/04/20 07:20:50;;;;;;;7.57;6.00;;;9.70;99.90;;;;;;5054752;28;20055;-77
2022/04/20 07:23:16;;;;;;;8.68;6.97;;;9.80;99.90;;;;;;5054666;28;20048;-78
2022/04/20 07:25:41;;;;;;;6.65;5.47;;;9.90;99.90;;;;;;5054589;28;20045;-77
2022/04/20 07:28:09;;;;;;;7.00;5.78;;;10.00;99.90;;;;;;5054679;28;20095;-78
2022/04/20 07:30:37;;;;;;;9.88;6.07;;;10.10;99.90;;;;;;5054767;28;20431;-76
2022/04/20 07:33:03;;;;;;;9.85;5.38;;;10.20;99.90;;;;;;5054174;28;20040;-77
2022/04/20 07:35:29;;;;;;;9.48;5.25;;;10.30;99.90;;;;;;5054607;28;20115;-76
2022/04/20 07:37:56;;;;;;;6.85;5.50;;;10.40;99.90;;;;;;5054599;28;20076;-78
2022/04/20 07:40:22;;;;;;;7.35;5.32;;;10.50;99.90;;;;;;5058386;28;20044;-76
2022/04/20 07:42:53;;;;;;;7.38;5.35;;;10.60;99.90;;;;;;5058748;28;20405;-77
2022/04/20 07:45:18;;;;;;;9.77;5.72;;;10.60;99.90;;;;;;5041271;28;20060;-78
2022/04/20 07:47:44;;;;;;;8.68;5.43;;;10.70;99.90;;;;;;5037581;28;20041;-77
2022/04/20 07:50:18;;;;;;;8.27;5.80;;;10.80;99.90;;;;;;5057203;28;20435;-77
2022/04/20 07:52:53;;;;;;;8.23;5.70;;;10.90;99.90;;;;;;5058308;28;20033;-76
2022/04/20 07:55:23;;;;;;;;;;;10.90;99.90;;;;;;5058739;28;20463;-77
2022/04/20 07:57:52;;;;;;;8.20;5.40;;;11.00;99.90;;;;;;5057802;28;20343;-78
2022/04/20 08:00:19;;;;;;;7.60;5.40;;;11.00;99.90;;;;;;5058206;28;20037;-79
2022/04/20 08:02:45;;;;;;;5.85;5.05;;;11.10;99.90;;;;;;5057647;28;20455;-76
2022/04/20 08:05:12;;;;;;;6.10;4.32;;;11.20;99.90;;;;;;5058128;28;20202;-76
2022/04/20 08:07:38;;;;;;;5.88;4.95;;;11.30;99.90;;;;;;5058186;28;20138;-75
2022/04/20 08:10:06;;;;;;;8.70;4.65;;;11.40;99.90;;;;;;5057760;28;20455;-78
2022/04/20 08:12:40;;;;;;;6.78;4.35;;;11.50;99.90;;;;;;5057786;28;20041;-76
2022/04/20 08:15:07;;;;;;;8.55;4.50;;;11.60;99.90;;;;;;5057792;28;20041;-76
2022/04/20 08:17:33;;;;;;;7.65;4.95;;;11.50;99.90;;;;;;5057719;28;20033;-77
2022/04/20 08:19:59;;;;;;;6.25;4.57;;;11.50;99.90;;;;;;5040107;28;20059;-75
2022/04/20 08:22:25;;;;;;;8.65;4.57;;;11.60;99.90;;;;;;5057845;28;20029;-77
2022/04/20 08:24:52;;;;;;;7.72;4.40;;;11.60;99.90;;;;;;5057977;28;20040;-77
2022/04/20 08:27:20;;;;;;;7.25;4.35;;;11.60;99.90;;;;;;5057431;28;20114;-76
2022/04/20 08:29:47;;;;;;;7.53;4.60;;;11.70;99.90;;;;;;5044544;28;20049;-75
2022/04/20 08:32:13;;;;;;;7.53;4.53;;;11.70;99.90;;;;;;5056512;28;20103;-76
2022/04/20 08:34:39;;;;;;;8.13;4.28;;;11.70;99.90;;;;;;5057295;28;20045;-76
2022/04/20 08:37:04;;;;;;;5.72;4.53;;;11.80;99.90;;;;;;5056385;28;20045;-75
2022/04/20 08:39:30;;;;;;;6.43;3.90;;;11.80;99.90;;;;;;5057530;28;20342;-76
2022/04/20 08:41:59;;;;;;;6.18;3.90;;;11.80;99.90;;;;;;5056248;28;20394;-77
2022/04/20 08:44:27;;;;;;;5.50;3.92;;;11.80;99.90;;;;;;5057331;28;20435;-76
2022/04/20 08:46:55;;;;;;;7.68;4.20;;;11.80;99.90;;;;;;5056484;28;20052;-77
2022/04/20 08:49:21;;;;;;;6.03;4.28;;;11.80;99.90;;;;;;5057240;28;20510;-76
2022/04/20 08:54:34;;;;;;;4.60;3.42;;;11.80;99.90;;;;;;5057345;28;20144;-77
2022/04/20 08:57:20;;;;;;;3.78;3.03;;;11.80;99.90;;;;;;5056152;28;20127;-78
2022/04/20 08:59:49;;;;;;;4.45;3.28;;;11.90;99.90;;;;;;5056989;28;20045;-76
2022/04/20 09:02:19;;;;;;;6.45;3.67;;;11.90;99.90;;;;;;5057210;28;20048;-77
2022/04/20 09:04:45;;;;;;;3.50;3.15;;;12.00;99.90;;;;;;5057281;28;20120;-76
2022/04/20 09:07:14;;;;;;;5.40;3.75;;;11.90;99.90;;;;;;5056815;28;20521;-75
2022/04/20 09:09:40;;;;;;;5.18;3.55;;;12.00;99.90;;;;;;5057015;28;20055;-75
2022/04/20 09:12:17;;;;;;;4.78;3.65;;;12.00;99.90;;;;;;5056025;28;20041;-77
2022/04/20 09:14:45;;;;;;;3.83;3.30;;;12.00;99.90;;;;;;5056637;28;20059;-77
2022/04/20 09:17:18;;;;;;;7.03;3.80;;;12.10;99.90;;;;;;5056882;28;20040;-76
2022/04/20 09:19:55;;;;;;;4.88;3.33;;;12.00;99.90;;;;;;5056400;28;20347;-75
2022/04/20 09:22:25;;;;;;;5.25;3.72;;;12.00;99.90;;;;;;5056917;28;20076;-76
2022/04/20 09:25:05;;;;;;;6.50;3.75;;;12.10;99.90;;;;;;5056430;28;20048;-76
2022/04/20 09:27:31;;;;;;;4.40;3.13;;;12.10;99.90;;;;;;5056432;28;20053;-77
2022/04/20 09:29:58;;;;;;;3.88;2.88;;;12.10;99.90;;;;;;5021495;28;20049;-76
2022/04/20 09:32:40;;;;;;;3.58;2.85;;;12.10;99.90;;;;;;5056549;28;20087;-76
2022/04/20 09:35:09;;;;;;;3.53;2.85;;;12.20;99.90;;;;;;5055684;28;20093;-76
2022/04/20 09:37:36;;;;;;;4.35;2.78;;;12.20;99.90;;;;;;5055646;28;20049;-76
2022/04/20 09:40:06;;;;;;;3.95;2.88;;;12.30;99.90;;;;;;5054863;28;20436;-75
2022/04/20 09:42:34;;;;;;;5.80;3.22;;;12.30;99.90;;;;;;5054965;28;20044;-76
2022/04/20 09:45:02;;;;;;;5.22;2.60;;;12.40;99.90;;;;;;5055348;28;20116;-77
2022/04/20 09:50:30;;;;;;;4.45;2.63;;;12.40;99.90;;;;;;5056365;28;20041;-77
2022/04/20 09:52:58;;;;;;;6.57;3.25;;;12.50;99.90;;;;;;5056697;28;20441;-75
2022/04/20 09:55:44;;;;;;;4.43;2.92;;;12.50;99.90;;;;;;5055969;28;20033;-76
2022/04/20 09:58:12;;;;;;;6.75;2.72;;;12.60;99.90;;;;;;5055476;28;20049;-75
2022/04/20 10:00:42;;;;;;;5.07;2.58;;;12.60;99.90;;;;;;5055996;28;20375;-76
2022/04/20 10:03:08;;;;;;;5.13;2.60;;;12.60;99.90;;;;;;5055194;28;20044;-76
2022/04/20 10:05:34;;;;;;;4.60;2.88;;;12.70;99.90;;;;;;5055923;28;20041;-77
2022/04/20 10:08:00;;;;;;;4.30;2.40;;;12.80;99.90;;;;;;5055155;28;20561;-76
2022/04/20 10:10:35;;;;;;;3.55;2.28;;;12.80;99.90;;;;;;5056030;28;20044;-76
2022/04/20 10:13:03;;;;;;;3.33;2.63;;;12.80;99.90;;;;;;5055522;28;20378;-77
2022/04/20 10:18:20;;;;;;;4.68;3.00;;;12.80;99.90;;;;;;5055611;28;20429;-76
2022/04/20 10:20:50;;;;;;;5.65;3.50;;;12.80;99.90;;;;;;5055004;28;20044;-78
2022/04/20 10:23:19;;;;;;;3.47;2.60;;;12.90;99.90;;;;;;5055486;28;20037;-76
2022/04/20 10:25:46;;;;;;;4.10;2.58;;;13.00;99.90;;;;;;5055712;28;20128;-78
2022/04/20 10:28:42;;;;;;;3.80;2.47;;;13.00;99.90;;;;;;5055503;28;20405;-74
2022/04/20 10:31:30;;;;;;;3.72;2.30;;;13.10;99.50;;;;;;5054799;28;20099;-76
2022/04/20 10:33:56;;;;;;;3.53;2.28;;;13.10;99.80;;;;;;5055599;28;20044;-75
2022/04/20 10:36:31;;;;;;;3.70;2.03;;;13.20;99.80;;;;;;5055302;28;20044;-76
2022/04/20 10:39:22;;;;;;;2.25;1.92;;;13.20;99.20;;;;;;5055161;28;20119;-75
2022/04/20 10:42:17;;;;;;;2.88;2.10;;;13.30;98.00;;;;;;5037804;28;20125;-75
2022/04/20 10:45:05;;;;;;;2.63;1.70;;;13.40;98.10;;;;;;5054679;28;20488;-78
2022/04/20 10:47:55;;;;;;;4.82;2.47;;;13.50;97.40;;;;;;5055193;28;20044;-77
2022/04/20 10:50:22;;;;;;;4.20;2.58;;;13.50;96.30;;;;;;5037371;28;20048;-75
2022/04/20 10:52:52;;;;;;;2.47;1.75;;;13.50;97.60;;;;;;5055040;28;20071;-75
2022/04/20 10:55:24;;;;;;;3.50;1.92;;;13.60;96.10;;;;;;5055011;28;20098;-75
2022/04/20 10:57:55;;;;;;;2.58;1.92;;;13.70;97.30;;;;;;5054915;28;20103;-75
2022/04/20 11:00:20;;;;;;;2.63;1.73;;;13.70;96.50;;;;;;5037812;28;20037;-75
2022/04/20 11:03:01;;;;;;;2.85;2.20;;;13.70;96.80;;;;;;5037405;28;20466;-76
2022/04/20 11:05:27;;;;;;;3.63;2.13;;;13.80;96.00;;;;;;5037873;28;20057;-77
2022/04/20 11:08:12;;;;;;;2.42;1.77;;;13.90;96.40;;;;;;5054680;28;20320;-78
2022/04/20 11:10:42;;;;;;;;;;;13.90;95.70;;;;;;5055036;28;20052;-76
2022/04/20 11:19:10;;;;;;;3.92;2.60;;;14.10;96.40;;;;;;5054947;28;20053;-74
2022/04/20 11:21:50;;;;;;;2.92;2.30;;;14.20;95.50;;;;;;5021157;28;20064;-75
2022/04/20 11:24:26;;;;;;;4.70;2.40;;;14.30;95.80;;;;;;5054700;28;20102;-77
2022/04/20 11:26:52;;;;;;;3.08;2.17;;;14.30;95.80;;;;;;5037336;28;20107;-77
2022/04/20 11:29:22;;;;;;;4.05;2.33;;;14.40;95.50;;;;;;5038395;28;20342;-76
2022/04/20 11:31:59;;;;;;;4.32;2.40;;;14.40;95.90;;;;;;5054062;28;20053;-77
2022/04/20 11:34:27;;;;;;;3.42;2.40;;;14.60;94.70;;;;;;5053712;28;20052;-75
2022/04/20 11:36:54;;;;;;;2.50;2.20;;;14.70;95.80;;;;;;5053502;28;20351;-77
2022/04/20 11:39:24;;;;;;;2.92;2.33;;;14.70;95.80;;;;;;5054612;28;20037;-78
2022/04/20 11:41:52;;;;;;;3.20;2.45;;;14.70;95.70;;;;;;5053901;28;20120;-76
2022/04/20 11:44:22;;;;;;;2.95;2.40;;;14.80;95.00;;;;;;5054951;28;20041;-75
2022/04/20 11:46:53;;;;;;;6.13;2.65;;;14.80;94.80;;;;;;5053990;28;20037;-76
2022/04/20 11:49:20;;;;;;;3.88;2.13;;;14.80;94.60;;;;;;5054429;28;20064;-76
2022/04/20 11:51:57;;;;;;;3.60;2.42;;;14.80;95.00;;;;;;5053640;28;20896;-76
2022/04/20 11:54:25;;;;;;;3.38;2.15;;;14.80;95.00;;;;;;5054343;28;20044;-76
2022/04/20 11:56:51;;;;;;;5.10;2.38;;;14.90;95.30;;;;;;5053568;28;20052;-76
2022/04/20 11:59:18;;;;;;;5.03;2.80;;;15.00;95.90;;;;;;5053661;28;20044;-77
2022/04/20 12:01:45;;;;;;;2.42;1.95;;;15.10;96.10;;;;;;5054185;28;20048;-76
2022/04/20 12:04:16;;;;;;;2.38;1.98;;;15.20;95.90;;;;;;5053760;28;20098;-76
2022/04/20 12:06:57;;;;;;;4.97;2.90;;;15.30;96.00;;;;;;5054500;28;20053;-78
2022/04/20 12:09:30;;;;;;;4.88;2.60;;;15.40;95.80;;;;;;5054651;28;20045;-77
2022/04/20 12:12:08;;;;;;;3.13;2.50;;;15.50;96.30;;;;;;5053567;28;20378;-77
2022/04/20 12:14:38;;;;;;;4.70;2.67;;;15.60;96.00;;;;;;5049699;28;20049;-76
2022/04/20 12:17:14;;;;;;;2.65;2.30;;;15.70;95.90;;;;;;5049881;28;20045;-76
2022/04/20 12:19:41;;;;;;;3.15;2.85;;;15.80;95.20;;;;;;5034608;28;20099;-77
2022/04/20 12:22:16;;;;;;;2.97;2.15;;;15.90;95.60;;;;;;5035146;28;20052;-77
2022/04/20 12:24:42;;;;;;;5.07;2.90;;;16.00;95.60;;;;;;5034525;28;20059;-75
2022/04/20 12:27:22;;;;;;;6.28;3.17;;;16.10;96.20;;;;;;5039738;28;20112;-76
2022/04/20 12:29:55;;;;;;;5.95;3.63;;;16.10;97.80;;;;;;5057789;28;20052;-75
2022/04/20 12:32:33;;;;;;;7.45;3.50;;;16.20;98.80;;;;;;5058041;28;20068;-76
2022/04/20 12:35:02;;;;;;;5.93;3.80;;;16.30;99.10;;;;;;5040431;28;20053;-75
2022/04/20 12:37:29;;;;;;;6.57;3.90;;;16.30;99.00;;;;;;5039977;28;20052;-75
2022/04/20 12:39:56;;;;;;;6.22;3.65;;;16.40;99.10;;;;;;5057552;28;20057;-75
2022/04/20 12:42:23;;;;;;;8.32;3.70;;;16.50;99.80;;;;;;5057355;28;20041;-75
2022/04/20 12:45:02;;;;;;;6.22;3.80;;;16.40;99.40;;;;;;5057590;28;20083;-75
2022/04/20 12:47:27;;;;;;;5.13;3.90;;;16.80;99.90;;;;;;5057394;28;20111;-75
2022/04/20 12:49:53;;;;;;;5.57;3.60;;;17.00;99.70;;;;;;5039913;28;20466;-76
2022/04/20 12:52:27;;;;;;;6.47;4.00;;;17.10;99.30;;;;;;5057224;28;20049;-75
2022/04/20 12:54:53;;;;;;;6.93;3.83;;;17.40;99.30;;;;;;5057305;28;20052;-76
2022/04/20 13:03:11;;;;;;;5.65;4.10;;;18.80;97.10;;;;;;5057084;28;20045;-75
2022/04/20 13:05:39;;;;;;;5.10;3.75;;;19.40;98.70;;;;;;5057125;28;20040;-76
2022/04/20 13:08:06;;;;;;;5.80;4.45;;;19.90;97.80;;;;;;5057002;28;20044;-75
2022/04/20 13:10:36;;;;;;;4.00;3.45;;;20.40;97.20;;;;;;5053591;28;20461;-75
2022/04/20 13:13:02;;;;;;;8.75;4.00;;;20.90;95.20;;;;;;5056387;28;20443;-75
2022/04/20 13:15:29;;;;;;;4.97;4.00;;;21.40;95.10;;;;;;5056787;28;20051;-75
2022/04/20 13:17:56;;;;;;;4.28;3.63;;;21.80;94.70;;;;;;5057176;28;20412;-76
2022/04/20 13:20:22;;;;;;;5.32;4.55;;;22.20;94.30;;;;;;5056937;28;20033;-76
2022/04/20 13:22:48;;;;;;;4.97;4.10;;;22.40;93.20;;;;;;5056715;28;20569;-75
2022/04/20 13:27:58;;;;;;;7.25;4.20;;;23.00;91.40;;;;;;5039127;28;20045;-76
2022/04/20 13:30:29;;;;;;;4.85;4.15;;;23.40;90.60;;;;;;5056309;28;20049;-75
2022/04/20 13:32:56;;;;;;;5.47;4.05;;;23.40;89.40;;;;;;5056549;28;20037;-78
2022/04/20 13:35:25;;;;;;;6.75;4.30;;;23.70;88.40;;;;;;5056676;28;20435;-77